Time;durP1;ratioP1;P1;durP2;ratioP2;P2;SDS_P1;SDS_P2;PMS_P1;PMS_P2;Temp;Humidity;BMP_temperature;BMP_pressure;BME280_temperature;BME280_humidity;BME280_pressure;Samples;Min_cycle;Max_cycle;Signal;HPM_P1;HPM_P2
2022/09/10 00:02:00;;;;;;;4.97;4.03;;;;;;;15.55;100.00;101048.34;6120515;23;20396;-71
2022/09/10 00:04:26;;;;;;;5.70;3.90;;;;;;;15.56;100.00;101044.56;6148261;23;20188;-71
2022/09/10 00:06:52;;;;;;;4.97;4.13;;;;;;;15.64;100.00;101043.44;6148129;23;20203;-71
2022/09/10 00:09:18;;;;;;;4.90;3.90;;;;;;;15.62;100.00;101040.13;6150063;23;20435;-71
2022/09/10 00:11:45;;;;;;;4.70;4.07;;;;;;;15.65;100.00;101042.38;6149214;23;20421;-71
2022/09/10 00:14:20;;;;;;;4.03;3.63;;;;;;;15.76;100.00;101041.66;6149192;23;20178;-71
2022/09/10 00:16:46;;;;;;;4.10;3.70;;;;;;;15.02;100.00;100963.31;6123019;23;20387;-71
2022/09/10 00:19:13;;;;;;;6.60;4.07;;;;;;;15.42;100.00;101024.16;6149653;23;20783;-71
2022/09/10 00:21:39;;;;;;;5.17;4.20;;;;;;;15.44;100.00;101049.91;6123214;23;20416;-71
2022/09/10 00:24:05;;;;;;;6.07;4.30;;;;;;;15.68;100.00;101048.22;6123164;23;20411;-71
2022/09/10 00:26:34;;;;;;;4.93;4.10;;;;;;;15.39;100.00;101041.69;6149529;23;20149;-72
2022/09/10 00:29:00;;;;;;;7.53;5.10;;;;;;;14.22;100.00;100899.28;6149867;23;20153;-72
2022/09/10 00:31:26;;;;;;;6.40;4.63;;;;;;;14.93;100.00;101013.28;6149613;23;20423;-71
2022/09/10 00:33:53;;;;;;;7.80;4.67;;;;;;;14.79;100.00;100993.69;6148900;23;20397;-71
2022/09/10 00:36:20;;;;;;;5.90;4.90;;;;;;;15.59;100.00;101066.59;6149071;23;20400;-71
2022/09/10 00:38:47;;;;;;;4.50;4.10;;;;;;;15.70;100.00;101062.31;6149379;23;20409;-71
2022/09/10 00:41:13;;;;;;;6.43;4.80;;;;;;;15.43;100.00;101048.28;6149164;23;20377;-71
2022/09/10 00:44:24;;;;;;;5.73;4.90;;;;;;;14.61;100.00;100947.75;6129409;23;20824;-71
2022/09/10 00:46:50;;;;;;;7.43;4.70;;;;;;;15.34;100.00;101041.53;6150332;23;20460;-71
2022/09/10 00:49:24;;;;;;;5.47;4.80;;;;;;;15.20;100.00;100997.59;6148854;23;20685;-71
2022/09/10 00:51:52;;;;;;;5.73;4.63;;;;;;;14.72;100.00;100951.59;6149736;23;20224;-71
2022/09/10 00:54:20;;;;;;;5.73;5.10;;;;;;;15.54;100.00;101071.03;6148997;23;20396;-71
2022/09/10 00:56:48;;;;;;;5.63;5.03;;;;;;;14.80;100.00;100929.69;6149184;23;20713;-71
2022/09/10 00:59:17;;;;;;;5.70;4.87;;;;;;;15.41;100.00;100981.97;6149274;23;20383;-71
2022/09/10 01:01:44;;;;;;;8.13;5.20;;;;;;;15.06;100.00;100926.69;6149042;23;20369;-70
2022/09/10 01:04:09;;;;;;;6.23;5.30;;;;;;;15.75;100.00;101062.47;6146538;23;20452;-70
2022/09/10 01:06:39;;;;;;;6.27;5.67;;;;;;;15.36;100.00;101018.63;6148839;23;20377;-70
2022/09/10 01:09:05;;;;;;;4.80;4.30;;;;;;;14.94;100.00;100930.38;6149394;23;20161;-71
2022/09/10 01:11:41;;;;;;;5.73;5.07;;;;;;;15.66;100.00;101076.50;6149307;23;20474;-68
2022/09/10 01:14:23;;;;;;;5.60;4.73;;;;;;;15.03;100.00;100977.66;6147302;23;20507;-71
2022/09/10 01:17:04;;;;;;;5.73;5.00;;;;;;;15.81;100.00;101072.38;6149743;23;20447;-71
2022/09/10 01:19:48;;;;;;;5.40;4.90;;;;;;;15.83;100.00;101074.88;6148499;23;20379;-70
2022/09/10 01:22:24;;;;;;;5.80;5.30;;;;;;;15.93;100.00;101068.91;6150141;23;20361;-71
2022/09/10 01:25:06;;;;;;;5.50;5.00;;;;;;;15.99;100.00;101033.63;6151530;23;20436;-71
2022/09/10 01:27:43;;;;;;;5.37;4.60;;;;;;;16.10;100.00;101072.63;6148377;23;20464;-71
2022/09/10 01:30:14;;;;;;;5.67;5.07;;;;;;;15.32;100.00;101016.59;6149455;23;20368;-71
2022/09/10 01:32:46;;;;;;;7.67;6.30;;;;;;;16.07;100.00;101062.25;6148607;23;20484;-71
2022/09/10 01:35:13;;;;;;;6.40;5.10;;;;;;;15.84;100.00;101067.56;6148019;23;20385;-70
2022/09/10 01:37:42;;;;;;;9.40;6.33;;;;;;;14.89;100.00;100939.16;6150214;23;20492;-71
2022/09/10 01:40:09;;;;;;;8.60;6.93;;;;;;;15.76;100.00;101053.28;6150642;23;20383;-71
2022/09/10 01:42:38;;;;;;;6.70;6.10;;;;;;;15.57;100.00;101020.03;6149173;23;20381;-70
2022/09/10 01:45:04;;;;;;;9.90;6.03;;;;;;;14.64;100.00;100874.44;6153967;23;20834;-69
2022/09/10 01:47:44;;;;;;;6.97;6.37;;;;;;;15.87;100.00;101067.94;6179486;23;20383;-69
2022/09/10 01:50:21;;;;;;;6.93;6.20;;;;;;;15.82;100.00;101036.19;6180639;23;20414;-69
2022/09/10 01:53:06;;;;;;;7.37;6.60;;;;;;;15.97;100.00;101068.22;6180418;23;20789;-68
2022/09/10 01:55:32;;;;;;;7.50;6.77;;;;;;;15.87;100.00;101067.94;6179390;23;20900;-69
2022/09/10 01:58:08;;;;;;;8.13;7.33;;;;;;;15.84;100.00;101068.41;6178844;23;20376;-68
2022/09/10 02:00:38;;;;;;;7.20;6.50;;;;;;;15.85;100.00;101053.81;6180318;23;20171;-68
2022/09/10 02:03:17;;;;;;;8.27;7.20;;;;;;;16.04;100.00;101060.81;6180735;23;20411;-68
2022/09/10 02:05:47;;;;;;;7.23;6.30;;;;;;;15.60;100.00;101062.00;6178810;23;20392;-68
2022/09/10 02:08:21;;;;;;;7.87;6.43;;;;;;;15.51;100.00;101056.09;6180131;23;20467;-68
2022/09/10 02:10:52;;;;;;;7.40;6.60;;;;;;;15.75;100.00;101076.00;6178922;23;20392;-68
2022/09/10 02:13:19;;;;;;;6.90;6.20;;;;;;;15.97;100.00;101075.53;6177986;23;20416;-68
2022/09/10 02:15:45;;;;;;;8.00;7.20;;;;;;;15.56;100.00;101012.97;6181495;23;20396;-69
2022/09/10 02:18:10;;;;;;;9.57;7.20;;;;;;;15.85;100.00;101067.31;6181749;23;20481;-68
2022/09/10 02:20:37;;;;;;;7.53;6.70;;;;;;;15.42;100.00;101002.53;6179757;23;20565;-69
2022/09/10 02:23:05;;;;;;;11.87;8.13;;;;;;;15.12;100.00;100970.88;6155229;23;20516;-68
2022/09/10 02:25:33;;;;;;;6.60;6.00;;;;;;;15.69;100.00;101068.78;6181594;23;20479;-68
2022/09/10 02:27:59;;;;;;;8.73;8.03;;;;;;;15.68;100.00;101067.16;6179509;23;20379;-69
2022/09/10 02:30:24;;;;;;;9.50;8.60;;;;;;;15.56;100.00;101069.75;6181050;23;20380;-68
2022/09/10 02:32:49;;;;;;;7.63;6.87;;;;;;;15.62;100.00;101072.59;6179765;23;20302;-69
2022/09/10 02:35:15;;;;;;;9.70;8.90;;;;;;;15.41;100.00;101071.16;6181466;23;20168;-69
2022/09/10 02:37:42;;;;;;;9.57;8.67;;;;;;;15.05;100.00;101003.38;6154949;23;20156;-69
2022/09/10 02:40:09;;;;;;;9.90;8.90;;;;;;;15.73;100.00;101072.69;6154724;23;20502;-69
2022/09/10 02:42:35;;;;;;;9.87;8.87;;;;;;;15.64;100.00;101073.19;6180110;23;20506;-68
2022/09/10 02:45:00;;;;;;;10.30;9.23;;;;;;;15.42;100.00;101067.41;6154605;23;20455;-68
2022/09/10 02:47:25;;;;;;;10.70;9.67;;;;;;;15.50;100.00;101073.34;6180829;23;20150;-68
2022/09/10 02:49:51;;;;;;;9.67;8.67;;;;;;;15.61;100.00;101079.88;6179921;23;20156;-68
2022/09/10 02:52:16;;;;;;;10.77;9.73;;;;;;;15.30;100.00;101033.06;6180751;23;20552;-68
2022/09/10 02:54:42;;;;;;;9.50;8.60;;;;;;;15.35;100.00;101027.78;6181155;23;20180;-68
2022/09/10 02:57:07;;;;;;;9.10;8.20;;;;;;;15.14;100.00;100974.19;6180426;23;20657;-68
2022/09/10 02:59:32;;;;;;;9.10;8.20;;;;;;;15.08;100.00;100997.53;6179084;23;20156;-69
2022/09/10 03:01:58;;;;;;;9.63;8.63;;;;;;;15.55;100.00;101067.28;6154104;23;20599;-69
2022/09/10 03:04:24;;;;;;;11.50;9.47;;;;;;;15.49;100.00;101084.41;6178622;23;20152;-68
2022/09/10 03:06:50;;;;;;;10.30;9.40;;;;;;;15.53;100.00;101070.19;6153881;23;20483;-68
2022/09/10 03:09:16;;;;;;;10.40;9.40;;;;;;;15.46;100.00;101066.75;6180341;23;20156;-68
2022/09/10 03:11:41;;;;;;;9.80;8.90;;;;;;;14.70;100.00;100951.81;6179577;23;20527;-68
2022/09/10 03:14:09;;;;;;;10.60;9.60;;;;;;;14.97;100.00;100970.44;6153376;23;20167;-69
2022/09/10 03:16:35;;;;;;;11.37;10.17;;;;;;;15.70;100.00;101075.03;6179775;23;20176;-69
2022/09/10 03:19:00;;;;;;;11.43;10.33;;;;;;;15.81;100.00;101075.06;6179314;23;20387;-69
2022/09/10 03:21:26;;;;;;;10.60;9.60;;;;;;;15.22;100.00;101005.50;6153582;23;20163;-69
2022/09/10 03:23:52;;;;;;;10.13;9.20;;;;;;;15.76;100.00;101077.63;6179437;23;20163;-68
2022/09/10 03:26:20;;;;;;;11.10;10.00;;;;;;;15.46;100.00;101055.94;6179336;23;20172;-68
2022/09/10 03:28:46;;;;;;;11.30;10.20;;;;;;;15.26;100.00;101055.34;6153731;23;20399;-68
2022/09/10 03:31:13;;;;;;;11.63;10.63;;;;;;;14.68;100.00;100989.00;6179278;23;20376;-68
2022/09/10 03:33:42;;;;;;;10.53;9.53;;;;;;;15.40;100.00;101078.47;6178758;23;20467;-69
2022/09/10 03:36:08;;;;;;;12.30;10.57;;;;;;;15.13;100.00;100999.56;6178905;23;20484;-69
2022/09/10 03:38:34;;;;;;;13.07;10.10;;;;;;;14.89;100.00;100985.06;6178171;23;20372;-69
2022/09/10 03:41:01;;;;;;;13.13;11.43;;;;;;;14.94;100.00;100965.50;6179446;23;20379;-69
2022/09/10 03:43:27;;;;;;;12.40;11.30;;;;;;;15.05;100.00;100952.06;6179156;23;20492;-69
2022/09/10 03:45:52;;;;;;;9.90;9.00;;;;;;;15.17;100.00;101018.84;6178219;23;20483;-68
2022/09/10 03:48:19;;;;;;;10.13;9.23;;;;;;;15.27;100.00;101011.03;6178798;23;20602;-69
2022/09/10 03:50:46;;;;;;;11.60;10.60;;;;;;;15.87;100.00;101092.28;6177671;23;20244;-68
2022/09/10 03:53:12;;;;;;;10.93;9.93;;;;;;;15.62;100.00;101089.63;6179401;23;20415;-69
2022/09/10 03:55:38;;;;;;;11.60;10.60;;;;;;;15.47;100.00;101090.00;6179299;23;20806;-69
2022/09/10 03:58:05;;;;;;;11.93;10.83;;;;;;;15.38;100.00;101091.38;6177919;23;20383;-69
2022/09/10 04:00:31;;;;;;;10.83;9.90;;;;;;;15.42;100.00;101116.06;6179167;23;20149;-69
2022/09/10 04:02:57;;;;;;;12.60;11.50;;;;;;;15.33;100.00;101097.47;6179556;23;20873;-69
2022/09/10 04:05:24;;;;;;;12.50;11.20;;;;;;;15.04;100.00;101057.63;6152713;23;20403;-69
2022/09/10 04:07:50;;;;;;;12.63;11.43;;;;;;;14.54;100.00;100992.88;6179659;23;20164;-68
2022/09/10 04:10:16;;;;;;;14.90;13.33;;;;;;;15.05;100.00;101075.50;6179933;23;20372;-69
2022/09/10 04:12:41;;;;;;;12.33;11.27;;;;;;;15.33;100.00;101102.00;6178400;23;20581;-68
2022/09/10 04:15:07;;;;;;;11.80;10.70;;;;;;;14.94;100.00;101068.94;6178535;23;20622;-68
2022/09/10 04:17:32;;;;;;;12.13;11.00;;;;;;;15.07;100.00;101066.13;6178711;23;20231;-69
2022/09/10 04:19:58;;;;;;;12.80;11.50;;;;;;;15.24;100.00;101041.22;6178880;23;20400;-68
2022/09/10 04:22:23;;;;;;;15.20;11.70;;;;;;;15.31;100.00;101091.44;6178518;23;20152;-69
2022/09/10 04:24:49;;;;;;;13.70;12.43;;;;;;;15.27;100.00;101100.22;6151083;23;20179;-68
2022/09/10 04:27:15;;;;;;;13.73;12.37;;;;;;;15.32;100.00;101100.38;6179283;23;20206;-69
2022/09/10 04:29:41;;;;;;;11.47;10.27;;;;;;;15.60;100.00;101099.88;6177923;23;20156;-69
2022/09/10 04:32:08;;;;;;;12.50;11.40;;;;;;;14.72;100.00;100967.78;6179522;23;20423;-68
2022/09/10 04:34:33;;;;;;;12.13;11.07;;;;;;;14.76;100.00;100964.44;6178737;23;20372;-68
2022/09/10 04:36:59;;;;;;;13.60;12.40;;;;;;;15.30;100.00;101016.84;6179727;23;20872;-69
2022/09/10 04:39:25;;;;;;;12.97;11.67;;;;;;;15.33;100.00;101104.72;6179004;23;20157;-68
2022/09/10 04:41:50;;;;;;;14.63;13.23;;;;;;;14.58;100.00;100985.97;6179193;23;20865;-68
2022/09/10 04:44:18;;;;;;;12.80;11.70;;;;;;;15.31;100.00;101121.16;6179257;23;20211;-68
2022/09/10 04:46:43;;;;;;;15.37;13.87;;;;;;;15.14;100.00;101093.06;6178116;23;20169;-69
2022/09/10 04:49:09;;;;;;;15.07;13.73;;;;;;;14.96;100.00;101069.56;6177423;23;20380;-68
2022/09/10 04:51:35;;;;;;;15.87;14.03;;;;;;;14.99;100.00;101084.50;6179995;23;20184;-69
2022/09/10 04:54:01;;;;;;;14.70;13.30;;;;;;;15.08;100.00;101069.66;6180225;23;20469;-69
2022/09/10 04:56:26;;;;;;;13.53;12.10;;;;;;;15.26;100.00;101034.53;6180469;23;20169;-69
2022/09/10 04:58:51;;;;;;;14.00;12.50;;;;;;;15.58;100.00;101129.81;6181088;23;20228;-69
2022/09/10 05:01:17;;;;;;;13.50;12.30;;;;;;;15.42;100.00;101081.78;6181080;23;20827;-69
2022/09/10 05:03:42;;;;;;;14.77;13.40;;;;;;;15.54;100.00;101112.41;6180638;23;20496;-69
2022/09/10 05:06:08;;;;;;;13.17;11.87;;;;;;;14.87;100.00;100995.28;6154223;23;20491;-69
2022/09/10 05:08:33;;;;;;;15.93;14.43;;;;;;;14.59;100.00;100990.34;6180411;23;20156;-69
2022/09/10 05:11:01;;;;;;;13.73;12.50;;;;;;;15.53;100.00;101121.53;6181093;23;20571;-69
2022/09/10 05:13:30;;;;;;;15.57;13.97;;;;;;;15.26;100.00;101085.06;6181026;23;20173;-69
2022/09/10 05:16:00;;;;;;;15.50;13.90;;;;;;;14.72;100.00;101022.59;6179873;23;20392;-69
2022/09/10 05:18:25;;;;;;;15.93;14.43;;;;;;;15.44;100.00;101128.31;6181429;23;20368;-69
2022/09/10 05:20:51;;;;;;;15.43;13.93;;;;;;;15.31;100.00;101114.94;6181585;23;20853;-68
2022/09/10 05:23:17;;;;;;;16.40;14.70;;;;;;;15.35;100.00;101125.06;6180806;23;20465;-69
2022/09/10 05:25:43;;;;;;;14.90;13.40;;;;;;;15.38;100.00;101137.31;6154966;23;20180;-69
2022/09/10 05:28:08;;;;;;;14.87;13.40;;;;;;;15.10;100.00;101072.94;6181361;23;20685;-69
2022/09/10 05:30:34;;;;;;;15.50;14.10;;;;;;;15.31;100.00;101131.97;6181226;23;20378;-69
2022/09/10 05:33:00;;;;;;;16.33;13.00;;;;;;;15.11;100.00;101070.03;6180790;23;20256;-68
2022/09/10 05:35:27;;;;;;;17.13;15.47;;;;;;;15.56;100.00;101125.69;6180151;23;20172;-68
2022/09/10 05:37:55;;;;;;;14.53;13.13;;;;;;;15.21;100.00;101069.50;6182142;23;20705;-68
2022/09/10 05:40:21;;;;;;;15.40;13.90;;;;;;;15.53;100.00;101143.19;6180523;23;20380;-69
2022/09/10 05:42:47;;;;;;;17.10;15.40;;;;;;;15.02;100.00;101028.16;6177423;23;20841;-69
2022/09/10 05:45:12;;;;;;;15.23;13.63;;;;;;;15.01;100.00;101012.97;6180414;23;20528;-69
2022/09/10 05:47:38;;;;;;;16.43;14.73;;;;;;;15.73;100.00;101125.94;6153336;23;20152;-69
2022/09/10 05:50:04;;;;;;;18.43;15.37;;;;;;;15.91;100.00;101158.41;6179201;23;20822;-69
2022/09/10 05:52:31;;;;;;;16.90;14.40;;;;;;;15.42;100.00;101079.06;6179397;23;20619;-69
2022/09/10 05:54:57;;;;;;;16.63;14.57;;;;;;;15.63;100.00;101139.97;6179567;23;20400;-69
2022/09/10 05:57:23;;;;;;;14.57;13.17;;;;;;;15.91;100.00;101154.84;6180182;23;20379;-69
2022/09/10 05:59:48;;;;;;;17.73;13.50;;;;;;;16.03;100.00;101153.88;6182090;23;20414;-69
2022/09/10 06:02:17;;;;;;;16.10;14.40;;;;;;;15.47;100.00;101089.19;6180512;23;20191;-69
2022/09/10 06:04:43;;;;;;;17.80;14.83;;;;;;;15.26;100.00;101072.38;6181028;23;20204;-69
2022/09/10 06:07:08;;;;;;;17.43;15.63;;;;;;;15.12;100.00;101077.06;6181132;23;20391;-69
2022/09/10 06:09:34;;;;;;;17.60;15.40;;;;;;;14.90;100.00;101054.25;6153731;23;20206;-69
2022/09/10 06:11:59;;;;;;;14.73;13.30;;;;;;;15.90;100.00;101154.03;6179853;23;20222;-69
2022/09/10 06:14:25;;;;;;;17.00;14.20;;;;;;;15.95;100.00;101129.03;6180597;23;20149;-69
2022/09/10 06:16:53;;;;;;;17.43;15.30;;;;;;;15.99;100.00;101168.09;6180491;23;20273;-69
2022/09/10 06:19:19;;;;;;;15.90;13.23;;;;;;;15.07;100.00;101038.25;6180824;23;20162;-69
2022/09/10 06:21:47;;;;;;;13.87;12.47;;;;;;;15.67;100.00;101116.00;6180159;23;20463;-68
2022/09/10 06:24:13;;;;;;;16.40;13.17;;;;;;;15.44;100.00;101105.84;6153587;23;20725;-69
2022/09/10 06:26:39;;;;;;;18.70;14.20;;;;;;;15.53;100.00;101110.72;6180333;23;20414;-69
2022/09/10 06:29:04;;;;;;;18.70;14.30;;;;;;;15.36;100.00;101086.19;6180346;23;20463;-68
2022/09/10 06:31:30;;;;;;;15.70;14.10;;;;;;;15.41;100.00;101101.72;6179553;23;20153;-69
2022/09/10 06:33:55;;;;;;;16.93;14.10;;;;;;;16.28;100.00;101188.13;6180141;23;20579;-69
2022/09/10 06:36:21;;;;;;;19.07;15.60;;;;;;;16.31;100.00;101189.53;6179992;23;20205;-68
2022/09/10 06:38:48;;;;;;;19.47;14.40;;;;;;;16.21;100.00;101201.75;6179818;23;20154;-69
2022/09/10 06:41:15;;;;;;;15.00;13.47;;;;;;;16.27;100.00;101202.72;6179586;23;20163;-69
2022/09/10 06:43:41;;;;;;;17.80;15.50;;;;;;;16.25;100.00;101200.22;6179375;23;20511;-69
2022/09/10 06:46:13;;;;;;;16.00;14.20;;;;;;;16.14;100.00;101159.56;6180252;23;21066;-69
2022/09/10 06:48:40;;;;;;;17.30;13.90;;;;;;;16.12;100.00;101157.09;6179182;23;20152;-69
2022/09/10 06:51:07;;;;;;;22.00;15.17;;;;;;;15.57;100.00;101078.69;6180243;23;20376;-69
2022/09/10 06:53:34;;;;;;;20.33;13.80;;;;;;;16.20;100.00;101145.13;6179102;23;20756;-69
2022/09/10 06:56:00;;;;;;;15.53;13.93;;;;;;;16.40;100.00;101199.00;6180179;23;20403;-69
2022/09/10 06:58:27;;;;;;;19.70;13.67;;;;;;;16.24;100.00;101176.94;6181178;23;20372;-70
2022/09/10 07:00:53;;;;;;;20.00;15.60;;;;;;;16.05;100.00;101169.88;6178006;23;20384;-69
2022/09/10 07:03:20;;;;;;;20.93;16.93;;;;;;;15.83;100.00;101196.56;6179052;23;20458;-70
2022/09/10 07:05:46;;;;;;;24.83;17.73;;;;;;;15.10;100.00;101117.00;6178480;23;20176;-69
2022/09/10 07:08:14;;;;;;;17.73;15.80;;;;;;;15.39;100.00;101114.66;6180002;23;20431;-69
2022/09/10 07:10:43;;;;;;;19.97;14.30;;;;;;;15.34;100.00;101087.47;6180128;23;20386;-69
2022/09/10 07:13:09;;;;;;;23.67;17.30;;;;;;;15.98;100.00;101205.13;6177824;23;20424;-70
2022/09/10 07:15:35;;;;;;;21.70;14.93;;;;;;;15.75;100.00;101140.06;6179520;23;20467;-69
2022/09/10 07:18:02;;;;;;;18.33;15.30;;;;;;;16.24;100.00;101209.41;6178833;23;20855;-69
2022/09/10 07:20:28;;;;;;;20.80;15.80;;;;;;;15.74;100.00;101116.81;6176910;23;20384;-69
2022/09/10 07:22:57;;;;;;;19.13;14.00;;;;;;;16.06;100.00;101119.31;6152341;23;20388;-69
2022/09/10 07:25:24;;;;;;;17.77;14.80;;;;;;;16.30;100.00;101185.19;6177924;23;20168;-69
2022/09/10 07:27:50;;;;;;;20.83;13.87;;;;;;;16.22;100.00;101184.44;6152660;23;20392;-69
2022/09/10 07:30:17;;;;;;;18.00;15.37;;;;;;;16.59;100.00;101205.22;6180631;23;20383;-69
2022/09/10 07:32:42;;;;;;;19.33;16.90;;;;;;;16.13;100.00;101202.03;6180431;23;20200;-70
2022/09/10 07:35:08;;;;;;;19.43;16.60;;;;;;;15.85;100.00;101194.44;6180819;23;20861;-69
2022/09/10 07:37:34;;;;;;;21.40;16.30;;;;;;;15.86;100.00;101206.13;6181436;23;20161;-70
2022/09/10 07:39:59;;;;;;;17.30;13.27;;;;;;;16.25;100.00;101218.34;6177981;23;20386;-69
2022/09/10 07:42:25;;;;;;;17.23;14.40;;;;;;;15.30;100.00;101059.22;6175628;23;20256;-69
2022/09/10 07:44:50;;;;;;;16.50;13.83;;;;;;;15.58;100.00;101112.78;6174516;23;20211;-69
2022/09/10 07:47:16;;;;;;;14.23;12.53;;;;;;;15.84;100.00;101148.72;6154695;23;20156;-70
2022/09/10 07:49:43;;;;;;;11.70;10.50;;;;;;;16.62;100.00;101224.53;6179352;23;20157;-69
2022/09/10 07:52:10;;;;;;;11.40;10.20;;;;;;;15.84;100.00;101117.06;6178694;23;20259;-69
2022/09/10 07:54:36;;;;;;;12.73;11.30;;;;;;;16.18;100.00;101158.06;6179045;23;20404;-69
2022/09/10 07:57:01;;;;;;;14.03;12.53;;;;;;;16.34;100.00;101230.50;6149682;23;20543;-69
2022/09/10 07:59:26;;;;;;;14.77;12.17;;;;;;;15.36;100.00;101102.41;6177961;23;20152;-69
2022/09/10 08:01:52;;;;;;;16.17;13.03;;;;;;;15.97;100.00;101191.84;6179248;23;20153;-69
2022/09/10 08:04:17;;;;;;;13.30;11.97;;;;;;;16.23;100.00;101239.41;6180726;23;20152;-69
2022/09/10 08:06:42;;;;;;;11.83;10.53;;;;;;;16.42;100.00;101230.22;6180953;23;20157;-69
2022/09/10 08:09:08;;;;;;;14.20;12.73;;;;;;;15.55;100.00;101173.53;6180785;23;20163;-69
2022/09/10 08:11:33;;;;;;;16.70;12.73;;;;;;;16.12;100.00;101248.28;6179558;23;20502;-69
2022/09/10 08:13:59;;;;;;;13.53;12.13;;;;;;;15.25;100.00;101111.25;6180855;23;20175;-69
2022/09/10 08:16:26;;;;;;;16.40;13.57;;;;;;;16.14;100.00;101254.28;6180493;23;20172;-69
2022/09/10 08:18:57;;;;;;;12.83;11.53;;;;;;;15.68;100.00;101205.06;6180802;23;20434;-69
2022/09/10 08:21:23;;;;;;;16.17;13.03;;;;;;;15.97;100.00;101254.91;6181300;23;20430;-70
2022/09/10 08:23:51;;;;;;;14.97;12.00;;;;;;;16.24;100.00;101262.72;6180556;23;20380;-69
2022/09/10 08:26:17;;;;;;;11.87;10.67;;;;;;;16.29;100.00;101271.00;6154673;23;20827;-69
2022/09/10 08:28:43;;;;;;;14.07;11.60;;;;;;;16.28;100.00;101266.63;6155434;23;20396;-69
2022/09/10 08:31:11;;;;;;;11.80;10.30;;;;;;;16.46;100.00;101263.06;6182469;23;20380;-69
2022/09/10 08:33:40;;;;;;;12.60;10.37;;;;;;;16.43;100.00;101252.69;6183111;23;20506;-69
2022/09/10 08:36:09;;;;;;;11.77;10.57;;;;;;;16.38;100.00;101209.25;6182519;23;20885;-69
2022/09/10 08:38:38;;;;;;;13.33;11.90;;;;;;;16.76;100.00;101278.53;6183173;23;20376;-69
2022/09/10 08:41:13;;;;;;;12.57;10.03;;;;;;;16.96;100.00;101273.69;6182816;23;20376;-69
2022/09/10 08:43:57;;;;;;;13.43;10.13;;;;;;;16.75;100.00;101220.81;6182238;23;20363;-69
2022/09/10 08:46:28;;;;;;;10.53;9.20;;;;;;;16.18;100.00;101147.25;6182209;23;20415;-69
2022/09/10 08:49:39;;;;;;;12.60;9.00;;;;;;;16.81;100.00;101233.47;6182775;23;20379;-69
2022/09/10 08:52:20;;;;;;;12.10;10.90;;;;;;;17.21;100.00;101280.81;6127278;23;20430;-69
2022/09/10 08:54:59;;;;;;;10.97;9.70;;;;;;;16.93;100.00;101231.63;6182170;23;20402;-69
2022/09/10 08:57:33;;;;;;;11.43;9.13;;;;;;;17.07;100.00;101253.13;6182294;23;20732;-69
2022/09/10 09:00:00;;;;;;;11.00;9.47;;;;;;;17.17;100.00;101288.59;6182356;23;20380;-69
2022/09/10 09:02:26;;;;;;;10.30;8.10;;;;;;;17.33;100.00;101284.41;6181697;23;20829;-69
2022/09/10 09:05:02;;;;;;;10.23;8.80;;;;;;;17.40;100.00;101282.41;6183102;23;20438;-69
2022/09/10 09:07:36;;;;;;;8.40;7.60;;;;;;;16.60;100.00;101169.75;6182781;23;20140;-69
2022/09/10 09:10:03;;;;;;;9.10;8.30;;;;;;;17.12;100.00;101283.03;6183083;23;20367;-69
2022/09/10 09:12:39;;;;;;;9.63;8.63;;;;;;;16.68;100.00;101210.06;6181369;23;20420;-69
2022/09/10 09:15:26;;;;;;;9.37;8.47;;;;;;;17.26;100.00;101292.63;6183168;23;20417;-69
2022/09/10 09:18:21;;;;;;;8.40;6.90;;;;;;;16.91;100.00;101278.97;6182297;23;20610;-69
2022/09/10 09:20:55;;;;;;;8.00;6.70;;;;;;;16.96;100.00;101246.59;6182364;23;20384;-69
2022/09/10 09:23:23;;;;;;;7.30;6.60;;;;;;;17.15;100.00;101293.41;6182644;23;20363;-69
2022/09/10 09:25:57;;;;;;;9.53;8.17;;;;;;;16.33;100.00;101228.88;6182174;23;20402;-69
2022/09/10 09:28:37;;;;;;;11.63;7.70;;;;;;;16.98;100.00;101271.59;6182334;23;20697;-69
2022/09/10 09:31:11;;;;;;;11.27;7.80;;;;;;;16.35;100.00;101182.63;6182494;23;20375;-69
2022/09/10 09:33:37;;;;;;;9.80;7.70;;;;;;;16.90;100.00;101297.13;6182301;23;20416;-69
2022/09/10 09:36:04;;;;;;;10.03;7.50;;;;;;;17.06;100.00;101286.69;6155334;23;20418;-69
2022/09/10 09:38:42;;;;;;;7.93;7.10;;;;;;;16.21;100.00;101181.97;6182004;23;20370;-69
2022/09/10 09:41:24;;;;;;;10.10;7.60;;;;;;;17.23;100.00;101284.94;6176761;23;20383;-69
2022/09/10 09:44:21;;;;;;;8.17;7.37;;;;;;;17.01;100.00;101229.63;6179361;23;20366;-69
2022/09/10 09:46:48;;;;;;;7.23;6.50;;;;;;;16.93;100.00;101264.13;6179404;23;20866;-69
2022/09/10 09:49:15;;;;;;;6.10;5.47;;;;;;;17.35;100.00;101288.50;6180537;23;20391;-69
2022/09/10 09:51:43;;;;;;;6.80;6.10;;;;;;;17.00;100.00;101245.06;6180836;23;20439;-69
2022/09/10 09:54:17;;;;;;;6.90;5.40;;;;;;;17.43;100.00;101308.22;6181721;23;20434;-69
2022/09/10 09:56:48;;;;;;;6.73;6.10;;;;;;;16.92;100.00;101265.22;6176357;23;20365;-69
2022/09/10 09:59:28;;;;;;;8.37;7.57;;;;;;;17.15;100.00;101313.25;6179473;23;20373;-69
2022/09/10 10:01:59;;;;;;;7.10;6.40;;;;;;;16.68;100.00;101247.97;6152973;23;20391;-69
2022/09/10 10:04:29;;;;;;;10.40;5.77;;;;;;;16.64;100.00;101230.56;6180937;23;20364;-69
2022/09/10 10:07:00;;;;;;;7.67;6.90;;;;;;;17.06;100.00;101321.91;6182140;23;20886;-69
2022/09/10 10:09:32;;;;;;;6.20;5.57;;;;;;;17.23;100.00;101324.78;6180765;23;20406;-68
2022/09/10 10:12:05;;;;;;;7.00;5.60;;;;;;;17.32;100.00;101316.09;6180765;23;20415;-69
2022/09/10 10:14:30;;;;;;;9.93;5.40;;;;;;;17.20;100.00;101334.22;6180971;23;20386;-69
2022/09/10 10:16:59;;;;;;;7.37;6.30;;;;;;;17.22;100.00;101313.13;6181593;23;20451;-69
2022/09/10 10:19:39;;;;;;;7.30;6.60;;;;;;;17.16;100.00;101297.78;6181259;23;20215;-69
2022/09/10 10:22:13;;;;;;;6.20;5.50;;;;;;;17.40;100.00;101326.59;6181225;23;20691;-69
2022/09/10 10:24:47;;;;;;;8.20;7.20;;;;;;;16.90;100.00;101251.06;6181737;23;20403;-69
2022/09/10 10:27:18;;;;;;;8.43;6.60;;;;;;;16.97;100.00;101267.22;6181224;23;20364;-68
2022/09/10 10:29:55;;;;;;;7.17;6.20;;;;;;;17.04;100.00;101240.84;6181745;23;20383;-69
2022/09/10 10:32:29;;;;;;;8.23;6.50;;;;;;;17.74;100.00;101310.63;6179477;23;20889;-69
2022/09/10 10:35:07;;;;;;;6.60;5.40;;;;;;;17.97;100.00;101309.84;6180451;23;20398;-69
2022/09/10 10:38:04;;;;;;;7.47;5.40;;;;;;;17.76;100.00;101262.41;6179664;23;20803;-69
2022/09/10 10:40:36;;;;;;;7.10;6.30;;;;;;;17.95;100.00;101300.28;6179954;23;20708;-69
2022/09/10 10:43:08;;;;;;;6.80;6.13;;;;;;;18.25;100.00;101300.13;6179997;23;20368;-70
2022/09/10 10:45:39;;;;;;;6.33;5.73;;;;;;;18.23;100.00;101267.78;6179985;23;20495;-69
2022/09/10 10:48:49;;;;;;;8.00;5.80;;;;;;;18.37;100.00;101286.53;6180787;23;20360;-69
2022/09/10 10:51:30;;;;;;;9.47;7.90;;;;;;;17.96;100.00;101280.22;6129677;23;20442;-69
2022/09/10 10:54:01;;;;;;;7.77;7.00;;;;;;;18.22;100.00;101287.84;6175637;23;20721;-69
2022/09/10 10:56:50;;;;;;;7.73;6.50;;;;;;;18.55;100.00;101278.22;6178813;23;20846;-70
2022/09/10 10:59:22;;;;;;;8.10;6.20;;;;;;;18.44;100.00;101250.03;6174020;23;20376;-69
2022/09/10 11:01:54;;;;;;;6.30;5.63;;;;;;;18.16;100.00;101204.66;6152870;23;20729;-69
2022/09/10 11:04:37;;;;;;;7.30;6.20;;;;;;;18.77;100.00;101283.00;6179512;23;20360;-69
2022/09/10 11:07:17;;;;;;;9.57;7.87;;;;;;;18.48;100.00;101277.53;6178653;23;20364;-70
2022/09/10 11:09:50;;;;;;;7.03;5.83;;;;;;;18.97;100.00;101265.19;6178517;23;20446;-69
2022/09/10 11:12:23;;;;;;;7.00;6.30;;;;;;;19.42;100.00;101247.19;6178509;23;20503;-70
2022/09/10 11:15:28;;;;;;;5.57;5.07;;;;;;;19.78;100.00;101262.19;6173239;23;20407;-69
2022/09/10 11:18:26;;;;;;;7.33;5.63;;;;;;;19.71;100.00;101255.28;6138983;23;20401;-70
2022/09/10 11:21:14;;;;;;;8.40;5.70;;;;;;;19.23;100.00;101257.47;6177105;23;20439;-68